createdAt,value
2023-11-30T00:04:59.003Z,-0.27
2023-11-30T00:15:07.113Z,-0.35
2023-11-30T00:24:58.855Z,-0.38
2023-11-30T00:34:59.010Z,-0.46
2023-11-30T00:44:58.644Z,-0.67
2023-11-30T00:54:58.528Z,-0.87
2023-11-30T01:04:58.410Z,-1.18
2023-11-30T01:14:58.350Z,-1.28
2023-11-30T01:24:58.246Z,-1.42
2023-11-30T01:34:58.127Z,-1.68
2023-11-30T01:44:58.069Z,-1.63
2023-11-30T01:54:57.946Z,-1.39
2023-11-30T02:04:57.858Z,-1.24
2023-11-30T02:14:57.738Z,-1.24
2023-11-30T02:24:57.643Z,-1.19
2023-11-30T02:34:57.552Z,-1.29
2023-11-30T02:44:57.440Z,-1.46
2023-11-30T02:54:57.364Z,-1.64
2023-11-30T03:04:57.268Z,-1.81
2023-11-30T03:14:57.196Z,-1.93
2023-11-30T03:24:57.068Z,-2.17
2023-11-30T03:34:56.969Z,-2.25
2023-11-30T03:45:04.625Z,-2.33
2023-11-30T03:54:56.772Z,-2.39
2023-11-30T04:04:56.699Z,-2.59
2023-11-30T04:14:56.613Z,-2.94
2023-11-30T04:24:56.516Z,-3.11
2023-11-30T04:34:56.418Z,-3.53
2023-11-30T04:44:56.347Z,-3.88
2023-11-30T04:54:56.544Z,-4.38
2023-11-30T05:04:56.290Z,-4.66
2023-11-30T05:14:56.100Z,-4.91
2023-11-30T05:24:55.960Z,-5.20
2023-11-30T05:34:55.893Z,-5.23
2023-11-30T05:44:55.863Z,-5.21
2023-11-30T05:54:55.672Z,-5.24
2023-11-30T06:04:55.654Z,-5.02
2023-11-30T06:15:01.920Z,-4.60
2023-11-30T06:24:55.328Z,-4.18
2023-11-30T06:34:55.233Z,-3.87
2023-11-30T06:44:56.524Z,-3.82
2023-11-30T06:54:56.623Z,-3.77
2023-11-30T07:04:55.097Z,-3.88
2023-11-30T07:14:54.994Z,-3.92
2023-11-30T07:24:55.544Z,-3.98
2023-11-30T07:34:54.850Z,-4.11
2023-11-30T07:44:54.699Z,-4.13
2023-11-30T07:54:54.587Z,-3.98
2023-11-30T08:04:54.488Z,-3.58
2023-11-30T08:14:54.541Z,-3.21
2023-11-30T08:24:54.478Z,-2.79
2023-11-30T08:34:54.413Z,-2.36
2023-11-30T08:44:54.056Z,-1.96
2023-11-30T08:54:54.003Z,-1.75
2023-11-30T09:04:53.899Z,-1.42
2023-11-30T09:14:53.808Z,-1.09
2023-11-30T09:24:53.702Z,-0.85
2023-11-30T09:34:53.512Z,-0.53
2023-11-30T09:44:53.489Z,-0.35
2023-11-30T09:54:53.357Z,-0.09
2023-11-30T10:04:53.288Z,-0.12
2023-11-30T10:14:53.191Z,0.03
2023-11-30T10:25:00.532Z,0.24
2023-11-30T10:34:53.116Z,0.53
2023-11-30T10:44:52.901Z,1.22
2023-11-30T10:54:52.752Z,1.47
2023-11-30T11:04:52.655Z,1.98
2023-11-30T11:14:52.562Z,1.90
2023-11-30T11:24:52.556Z,1.78
2023-11-30T11:34:52.382Z,1.39
2023-11-30T11:44:52.380Z,1.25
2023-11-30T11:54:52.292Z,1.50
2023-11-30T12:04:52.703Z,1.38
2023-11-30T12:14:52.002Z,1.33
2023-11-30T12:24:51.915Z,1.49
2023-11-30T12:34:51.796Z,1.21
2023-11-30T12:44:51.743Z,1.49
2023-11-30T12:55:00.484Z,1.36
2023-11-30T13:04:51.542Z,1.17
2023-11-30T13:14:51.411Z,1.17
2023-11-30T13:24:51.236Z,1.25
2023-11-30T13:34:51.124Z,1.12
2023-11-30T13:44:58.852Z,0.67
2023-11-30T13:54:50.957Z,0.26
2023-11-30T14:04:50.908Z,0.06
2023-11-30T14:14:50.754Z,-0.24
2023-11-30T14:24:50.640Z,-0.55
2023-11-30T14:34:50.540Z,-0.87
2023-11-30T14:44:50.462Z,-1.11
2023-11-30T14:54:50.366Z,-1.32
2023-11-30T15:04:50.306Z,-1.49
2023-11-30T15:14:51.129Z,-1.79
2023-11-30T15:24:50.124Z,-2.17
2023-11-30T15:34:49.995Z,-2.44
2023-11-30T15:44:49.908Z,-2.76
2023-11-30T15:54:49.848Z,-3.08
2023-11-30T16:04:49.782Z,-3.29
2023-11-30T16:14:49.572Z,-3.51
2023-11-30T16:24:49.568Z,-3.72
2023-11-30T16:34:49.398Z,-3.91
2023-11-30T16:44:49.275Z,-4.09
2023-11-30T16:54:49.223Z,-4.26
2023-11-30T17:04:49.238Z,-4.47
2023-11-30T17:14:48.989Z,-4.51
2023-11-30T17:24:49.115Z,-4.60
2023-11-30T17:34:49.055Z,-4.80
2023-11-30T17:44:48.689Z,-5.04
2023-11-30T17:54:48.641Z,-5.26
2023-11-30T18:04:48.657Z,-5.41
2023-11-30T18:14:48.489Z,-5.52
2023-11-30T18:24:48.363Z,-5.56
2023-11-30T18:34:48.297Z,-5.66
2023-11-30T18:44:48.137Z,-5.71
2023-11-30T18:54:48.441Z,-5.83
2023-11-30T19:04:54.763Z,-5.95
2023-11-30T19:14:47.996Z,-5.94
2023-11-30T19:24:57.057Z,-6.03
2023-11-30T19:34:54.221Z,-6.10
2023-11-30T19:44:55.570Z,-5.98
2023-11-30T19:54:47.588Z,-5.95
2023-11-30T20:04:47.571Z,-6.10
2023-11-30T20:14:47.442Z,-6.17
2023-11-30T20:24:48.122Z,-6.40
2023-11-30T20:34:47.194Z,-6.52
2023-11-30T20:44:47.004Z,-6.70
2023-11-30T20:54:47.107Z,-6.91
2023-11-30T21:04:46.883Z,-6.96
2023-11-30T21:14:46.789Z,-7.04
2023-11-30T21:24:46.808Z,-7.30
2023-11-30T21:34:46.671Z,-7.42
2023-11-30T21:44:46.998Z,-7.37
2023-11-30T21:54:47.525Z,-7.52
2023-11-30T22:04:46.465Z,-7.52
2023-11-30T22:14:46.220Z,-7.45
2023-11-30T22:24:46.196Z,-7.31
2023-11-30T22:34:46.059Z,-7.22
2023-11-30T22:44:45.886Z,-7.11
2023-11-30T22:54:45.882Z,-7.30
2023-11-30T23:04:45.881Z,-7.56
2023-11-30T23:14:45.669Z,-7.40
2023-11-30T23:24:45.537Z,-7.32
2023-11-30T23:34:45.542Z,-6.95
2023-11-30T23:44:45.394Z,-6.56
2023-11-30T23:54:45.321Z,-6.13
